sensor_id;sensor_type;location;lat;lon;timestamp;temperature;humidity
22249;DHT22;67538;52.180;5.646;2023-07-24T00:00:18;18.00;99.90
22249;DHT22;67538;52.180;5.646;2023-07-24T00:02:45;18.00;99.90
22249;DHT22;67538;52.180;5.646;2023-07-24T00:05:12;18.00;99.90
22249;DHT22;67538;52.180;5.646;2023-07-24T00:07:39;18.00;99.90
22249;DHT22;67538;52.180;5.646;2023-07-24T00:10:07;18.00;99.90
22249;DHT22;67538;52.180;5.646;2023-07-24T00:12:35;18.00;99.90
22249;DHT22;67538;52.180;5.646;2023-07-24T00:15:03;18.00;99.90
22249;DHT22;67538;52.180;5.646;2023-07-24T00:17:30;18.00;99.90
22249;DHT22;67538;52.180;5.646;2023-07-24T00:19:57;18.00;99.90
22249;DHT22;67538;52.180;5.646;2023-07-24T00:22:24;18.00;99.90
22249;DHT22;67538;52.180;5.646;2023-07-24T00:24:51;18.00;99.90
22249;DHT22;67538;52.180;5.646;2023-07-24T00:27:18;18.00;99.90
22249;DHT22;67538;52.180;5.646;2023-07-24T00:29:47;18.00;99.90
22249;DHT22;67538;52.180;5.646;2023-07-24T00:32:14;18.00;99.90
22249;DHT22;67538;52.180;5.646;2023-07-24T00:34:41;17.90;99.90
22249;DHT22;67538;52.180;5.646;2023-07-24T00:37:08;17.90;99.90
22249;DHT22;67538;52.180;5.646;2023-07-24T00:39:35;17.80;99.90
22249;DHT22;67538;52.180;5.646;2023-07-24T00:42:02;17.80;99.90
22249;DHT22;67538;52.180;5.646;2023-07-24T00:44:29;17.80;99.90
22249;DHT22;67538;52.180;5.646;2023-07-24T00:46:58;17.70;99.90
22249;DHT22;67538;52.180;5.646;2023-07-24T00:49:25;17.70;99.90
22249;DHT22;67538;52.180;5.646;2023-07-24T00:51:52;17.70;99.90
22249;DHT22;67538;52.180;5.646;2023-07-24T00:54:21;17.60;99.90
22249;DHT22;67538;52.180;5.646;2023-07-24T00:56:49;17.60;99.90
22249;DHT22;67538;52.180;5.646;2023-07-24T00:59:16;17.60;99.90
22249;DHT22;67538;52.180;5.646;2023-07-24T01:01:44;17.60;99.90
22249;DHT22;67538;52.180;5.646;2023-07-24T01:04:13;17.60;99.90
22249;DHT22;67538;52.180;5.646;2023-07-24T01:06:41;17.60;99.90
22249;DHT22;67538;52.180;5.646;2023-07-24T01:09:08;17.60;99.90
22249;DHT22;67538;52.180;5.646;2023-07-24T01:11:38;17.60;99.90
22249;DHT22;67538;52.180;5.646;2023-07-24T01:14:12;17.50;99.90
22249;DHT22;67538;52.180;5.646;2023-07-24T01:16:41;17.60;99.90
22249;DHT22;67538;52.180;5.646;2023-07-24T01:19:16;17.50;99.90
22249;DHT22;67538;52.180;5.646;2023-07-24T01:21:58;17.50;99.90
22249;DHT22;67538;52.180;5.646;2023-07-24T01:24:35;17.50;99.90
22249;DHT22;67538;52.180;5.646;2023-07-24T01:27:04;17.60;99.90
22249;DHT22;67538;52.180;5.646;2023-07-24T01:29:33;17.60;99.90
22249;DHT22;67538;52.180;5.646;2023-07-24T01:32:00;17.50;99.90
22249;DHT22;67538;52.180;5.646;2023-07-24T01:34:27;17.60;99.90
22249;DHT22;67538;52.180;5.646;2023-07-24T01:36:54;17.60;99.90
22249;DHT22;67538;52.180;5.646;2023-07-24T01:39:22;17.60;99.90
22249;DHT22;67538;52.180;5.646;2023-07-24T01:41:50;17.60;99.90
22249;DHT22;67538;52.180;5.646;2023-07-24T01:44:18;17.60;99.90
22249;DHT22;67538;52.180;5.646;2023-07-24T01:46:45;17.60;99.90
22249;DHT22;67538;52.180;5.646;2023-07-24T01:49:13;17.60;99.90
22249;DHT22;67538;52.180;5.646;2023-07-24T01:51:40;17.50;99.90
22249;DHT22;67538;52.180;5.646;2023-07-24T01:54:07;17.50;99.90
22249;DHT22;67538;52.180;5.646;2023-07-24T01:56:36;17.50;99.90
22249;DHT22;67538;52.180;5.646;2023-07-24T01:59:03;17.50;99.90
22249;DHT22;67538;52.180;5.646;2023-07-24T02:01:31;17.50;99.90
22249;DHT22;67538;52.180;5.646;2023-07-24T02:03:58;17.50;99.90
22249;DHT22;67538;52.180;5.646;2023-07-24T02:06:26;17.50;99.90
22249;DHT22;67538;52.180;5.646;2023-07-24T02:08:53;17.50;99.90
22249;DHT22;67538;52.180;5.646;2023-07-24T02:11:20;17.50;99.90
22249;DHT22;67538;52.180;5.646;2023-07-24T02:13:47;17.50;99.90
22249;DHT22;67538;52.180;5.646;2023-07-24T02:16:14;17.50;99.90
22249;DHT22;67538;52.180;5.646;2023-07-24T02:18:43;17.50;99.90
22249;DHT22;67538;52.180;5.646;2023-07-24T02:21:10;17.50;99.90
22249;DHT22;67538;52.180;5.646;2023-07-24T02:23:37;17.50;99.90
22249;DHT22;67538;52.180;5.646;2023-07-24T02:26:04;17.50;99.90
22249;DHT22;67538;52.180;5.646;2023-07-24T02:28:31;17.50;99.90
22249;DHT22;67538;52.180;5.646;2023-07-24T02:30:58;17.50;99.90
22249;DHT22;67538;52.180;5.646;2023-07-24T02:33:26;17.40;99.90
22249;DHT22;67538;52.180;5.646;2023-07-24T02:35:54;17.40;99.90
22249;DHT22;67538;52.180;5.646;2023-07-24T02:38:21;17.40;99.90
22249;DHT22;67538;52.180;5.646;2023-07-24T02:40:49;17.40;99.90
22249;DHT22;67538;52.180;5.646;2023-07-24T02:43:16;17.40;99.90
22249;DHT22;67538;52.180;5.646;2023-07-24T02:45:43;17.40;99.90
22249;DHT22;67538;52.180;5.646;2023-07-24T02:48:10;17.40;99.90
22249;DHT22;67538;52.180;5.646;2023-07-24T02:50:37;17.40;99.90
22249;DHT22;67538;52.180;5.646;2023-07-24T02:53:05;17.40;99.90
22249;DHT22;67538;52.180;5.646;2023-07-24T02:55:32;17.40;99.90
22249;DHT22;67538;52.180;5.646;2023-07-24T02:57:59;17.30;99.90
22249;DHT22;67538;52.180;5.646;2023-07-24T03:00:27;17.40;99.90
22249;DHT22;67538;52.180;5.646;2023-07-24T03:02:53;17.40;99.90
22249;DHT22;67538;52.180;5.646;2023-07-24T03:05:20;17.40;99.90
22249;DHT22;67538;52.180;5.646;2023-07-24T03:07:48;17.40;99.90
22249;DHT22;67538;52.180;5.646;2023-07-24T03:10:16;17.40;99.90
22249;DHT22;67538;52.180;5.646;2023-07-24T03:12:43;17.40;99.90
22249;DHT22;67538;52.180;5.646;2023-07-24T03:15:10;17.40;99.90
22249;DHT22;67538;52.180;5.646;2023-07-24T03:17:37;17.50;99.90
22249;DHT22;67538;52.180;5.646;2023-07-24T03:20:16;17.50;99.90
22249;DHT22;67538;52.180;5.646;2023-07-24T03:22:44;17.50;99.90
22249;DHT22;67538;52.180;5.646;2023-07-24T03:25:11;17.50;99.90
22249;DHT22;67538;52.180;5.646;2023-07-24T03:27:40;17.50;99.90
22249;DHT22;67538;52.180;5.646;2023-07-24T03:30:07;17.50;99.90
22249;DHT22;67538;52.180;5.646;2023-07-24T03:32:36;17.50;99.90
22249;DHT22;67538;52.180;5.646;2023-07-24T03:35:03;17.50;99.90
22249;DHT22;67538;52.180;5.646;2023-07-24T03:37:31;17.40;99.90
22249;DHT22;67538;52.180;5.646;2023-07-24T03:39:58;17.40;99.90
22249;DHT22;67538;52.180;5.646;2023-07-24T03:42:26;17.40;99.90
22249;DHT22;67538;52.180;5.646;2023-07-24T03:44:55;17.30;99.90
22249;DHT22;67538;52.180;5.646;2023-07-24T03:47:23;17.30;99.90
22249;DHT22;67538;52.180;5.646;2023-07-24T03:49:50;17.30;99.90
22249;DHT22;67538;52.180;5.646;2023-07-24T03:52:17;17.30;99.90
22249;DHT22;67538;52.180;5.646;2023-07-24T03:54:45;17.20;99.90
22249;DHT22;67538;52.180;5.646;2023-07-24T03:57:12;17.20;99.90
22249;DHT22;67538;52.180;5.646;2023-07-24T03:59:41;17.20;99.90
22249;DHT22;67538;52.180;5.646;2023-07-24T04:02:09;17.20;99.90
22249;DHT22;67538;52.180;5.646;2023-07-24T04:04:37;17.20;99.90
22249;DHT22;67538;52.180;5.646;2023-07-24T04:07:04;17.20;99.90
22249;DHT22;67538;52.180;5.646;2023-07-24T04:09:31;17.20;99.90
22249;DHT22;67538;52.180;5.646;2023-07-24T04:11:59;17.10;99.90
22249;DHT22;67538;52.180;5.646;2023-07-24T04:14:26;17.20;99.90
22249;DHT22;67538;52.180;5.646;2023-07-24T04:16:53;17.10;99.90
22249;DHT22;67538;52.180;5.646;2023-07-24T04:19:22;17.10;99.90
22249;DHT22;67538;52.180;5.646;2023-07-24T04:21:49;17.10;99.90
22249;DHT22;67538;52.180;5.646;2023-07-24T04:24:16;17.10;99.90
22249;DHT22;67538;52.180;5.646;2023-07-24T04:26:43;17.10;99.90
22249;DHT22;67538;52.180;5.646;2023-07-24T04:29:10;17.10;99.90
22249;DHT22;67538;52.180;5.646;2023-07-24T04:31:37;17.10;99.90
22249;DHT22;67538;52.180;5.646;2023-07-24T04:34:05;17.10;99.90
22249;DHT22;67538;52.180;5.646;2023-07-24T04:36:33;17.10;99.90
22249;DHT22;67538;52.180;5.646;2023-07-24T04:39:00;17.00;99.90
22249;DHT22;67538;52.180;5.646;2023-07-24T04:41:27;17.10;99.90
22249;DHT22;67538;52.180;5.646;2023-07-24T04:43:54;17.10;99.90
22249;DHT22;67538;52.180;5.646;2023-07-24T04:46:21;17.10;99.90
22249;DHT22;67538;52.180;5.646;2023-07-24T04:48:48;17.10;99.90
22249;DHT22;67538;52.180;5.646;2023-07-24T04:51:15;17.00;99.90
22249;DHT22;67538;52.180;5.646;2023-07-24T04:53:45;17.00;99.90
22249;DHT22;67538;52.180;5.646;2023-07-24T04:56:12;17.00;99.90
22249;DHT22;67538;52.180;5.646;2023-07-24T04:58:39;17.00;99.90
22249;DHT22;67538;52.180;5.646;2023-07-24T05:01:06;17.00;99.90
22249;DHT22;67538;52.180;5.646;2023-07-24T05:03:34;17.00;99.90
22249;DHT22;67538;52.180;5.646;2023-07-24T05:06:01;17.00;99.90
22249;DHT22;67538;52.180;5.646;2023-07-24T05:08:28;17.00;99.90
22249;DHT22;67538;52.180;5.646;2023-07-24T05:10:57;16.90;99.90
22249;DHT22;67538;52.180;5.646;2023-07-24T05:13:25;16.90;99.90
22249;DHT22;67538;52.180;5.646;2023-07-24T05:15:52;16.90;99.90
22249;DHT22;67538;52.180;5.646;2023-07-24T05:18:19;16.80;99.90
22249;DHT22;67538;52.180;5.646;2023-07-24T05:20:47;16.80;99.90
22249;DHT22;67538;52.180;5.646;2023-07-24T05:23:17;16.80;99.90
22249;DHT22;67538;52.180;5.646;2023-07-24T05:25:44;16.80;99.90
22249;DHT22;67538;52.180;5.646;2023-07-24T05:28:12;16.80;99.90
22249;DHT22;67538;52.180;5.646;2023-07-24T05:30:39;16.80;99.90
22249;DHT22;67538;52.180;5.646;2023-07-24T05:33:06;16.90;99.90
22249;DHT22;67538;52.180;5.646;2023-07-24T05:35:33;16.90;99.90
22249;DHT22;67538;52.180;5.646;2023-07-24T05:38:00;17.00;99.90
22249;DHT22;67538;52.180;5.646;2023-07-24T05:40:28;17.00;99.90
22249;DHT22;67538;52.180;5.646;2023-07-24T05:42:55;17.00;99.90
22249;DHT22;67538;52.180;5.646;2023-07-24T05:45:24;17.00;99.90
22249;DHT22;67538;52.180;5.646;2023-07-24T05:47:51;17.00;99.90
22249;DHT22;67538;52.180;5.646;2023-07-24T05:50:18;17.10;99.90
22249;DHT22;67538;52.180;5.646;2023-07-24T05:52:45;17.10;99.90
22249;DHT22;67538;52.180;5.646;2023-07-24T05:55:12;17.10;99.90
22249;DHT22;67538;52.180;5.646;2023-07-24T05:57:39;17.20;99.90
22249;DHT22;67538;52.180;5.646;2023-07-24T06:00:07;17.20;99.90
22249;DHT22;67538;52.180;5.646;2023-07-24T06:02:35;17.20;99.90
22249;DHT22;67538;52.180;5.646;2023-07-24T06:05:03;17.20;99.90
22249;DHT22;67538;52.180;5.646;2023-07-24T06:07:30;17.20;99.90
22249;DHT22;67538;52.180;5.646;2023-07-24T06:09:57;17.20;99.90
22249;DHT22;67538;52.180;5.646;2023-07-24T06:12:24;17.20;99.90
22249;DHT22;67538;52.180;5.646;2023-07-24T06:14:51;17.20;99.90
22249;DHT22;67538;52.180;5.646;2023-07-24T06:17:18;17.20;99.90
22249;DHT22;67538;52.180;5.646;2023-07-24T06:19:46;17.30;99.90
22249;DHT22;67538;52.180;5.646;2023-07-24T06:22:14;17.30;99.90
22249;DHT22;67538;52.180;5.646;2023-07-24T06:24:41;17.30;99.90
22249;DHT22;67538;52.180;5.646;2023-07-24T06:27:08;17.30;99.90
22249;DHT22;67538;52.180;5.646;2023-07-24T06:29:35;17.40;99.90
22249;DHT22;67538;52.180;5.646;2023-07-24T06:32:02;17.40;99.90
22249;DHT22;67538;52.180;5.646;2023-07-24T06:34:29;17.40;99.90
22249;DHT22;67538;52.180;5.646;2023-07-24T06:36:58;17.40;99.90
22249;DHT22;67538;52.180;5.646;2023-07-24T06:39:25;17.40;99.90
22249;DHT22;67538;52.180;5.646;2023-07-24T06:41:54;17.40;99.90
22249;DHT22;67538;52.180;5.646;2023-07-24T06:44:21;17.50;99.90
22249;DHT22;67538;52.180;5.646;2023-07-24T06:46:48;17.60;99.90
22249;DHT22;67538;52.180;5.646;2023-07-24T06:49:15;17.70;99.90
22249;DHT22;67538;52.180;5.646;2023-07-24T06:51:42;17.70;99.90
22249;DHT22;67538;52.180;5.646;2023-07-24T06:54:11;17.80;99.90
22249;DHT22;67538;52.180;5.646;2023-07-24T06:56:38;18.00;99.90
22249;DHT22;67538;52.180;5.646;2023-07-24T06:59:05;18.00;99.90
22249;DHT22;67538;52.180;5.646;2023-07-24T07:01:32;18.10;99.90
22249;DHT22;67538;52.180;5.646;2023-07-24T07:03:59;18.20;99.90
22249;DHT22;67538;52.180;5.646;2023-07-24T07:06:26;18.20;99.90
22249;DHT22;67538;52.180;5.646;2023-07-24T07:08:53;18.20;99.90
22249;DHT22;67538;52.180;5.646;2023-07-24T07:11:21;18.20;99.90
22249;DHT22;67538;52.180;5.646;2023-07-24T07:13:48;18.20;99.90
22249;DHT22;67538;52.180;5.646;2023-07-24T07:16:16;18.40;99.90
22249;DHT22;67538;52.180;5.646;2023-07-24T07:18:44;18.60;99.90
22249;DHT22;67538;52.180;5.646;2023-07-24T07:21:11;18.80;99.90
22249;DHT22;67538;52.180;5.646;2023-07-24T07:23:38;18.80;99.90
22249;DHT22;67538;52.180;5.646;2023-07-24T07:26:05;18.80;99.90
22249;DHT22;67538;52.180;5.646;2023-07-24T07:28:34;18.80;99.90
22249;DHT22;67538;52.180;5.646;2023-07-24T07:31:01;18.90;99.90
22249;DHT22;67538;52.180;5.646;2023-07-24T07:33:28;18.80;99.90
22249;DHT22;67538;52.180;5.646;2023-07-24T07:35:55;18.70;99.90
22249;DHT22;67538;52.180;5.646;2023-07-24T07:38:22;18.40;99.90
22249;DHT22;67538;52.180;5.646;2023-07-24T07:40:50;18.30;99.90
22249;DHT22;67538;52.180;5.646;2023-07-24T07:43:17;18.30;99.90
22249;DHT22;67538;52.180;5.646;2023-07-24T07:45:46;18.40;99.90
22249;DHT22;67538;52.180;5.646;2023-07-24T07:48:13;18.60;99.90
22249;DHT22;67538;52.180;5.646;2023-07-24T07:50:40;18.80;99.90
22249;DHT22;67538;52.180;5.646;2023-07-24T07:53:07;18.80;99.90
22249;DHT22;67538;52.180;5.646;2023-07-24T07:55:34;18.90;99.90
22249;DHT22;67538;52.180;5.646;2023-07-24T07:58:01;19.40;99.90
22249;DHT22;67538;52.180;5.646;2023-07-24T08:00:29;19.70;99.90
22249;DHT22;67538;52.180;5.646;2023-07-24T08:02:57;19.80;99.90
22249;DHT22;67538;52.180;5.646;2023-07-24T08:05:24;19.70;99.90
22249;DHT22;67538;52.180;5.646;2023-07-24T08:07:51;19.30;99.90
22249;DHT22;67538;52.180;5.646;2023-07-24T08:10:18;19.10;99.90
22249;DHT22;67538;52.180;5.646;2023-07-24T08:12:45;19.10;99.90
22249;DHT22;67538;52.180;5.646;2023-07-24T08:15:12;19.20;99.90
22249;DHT22;67538;52.180;5.646;2023-07-24T08:17:39;19.10;99.90
22249;DHT22;67538;52.180;5.646;2023-07-24T08:20:08;19.10;99.90
22249;DHT22;67538;52.180;5.646;2023-07-24T08:22:35;19.00;99.90
22249;DHT22;67538;52.180;5.646;2023-07-24T08:25:03;19.10;99.90
22249;DHT22;67538;52.180;5.646;2023-07-24T08:27:30;19.20;99.90
22249;DHT22;67538;52.180;5.646;2023-07-24T08:29:58;19.40;99.90
22249;DHT22;67538;52.180;5.646;2023-07-24T08:32:25;19.50;99.90
22249;DHT22;67538;52.180;5.646;2023-07-24T08:34:52;19.30;99.90
22249;DHT22;67538;52.180;5.646;2023-07-24T08:37:20;19.30;99.90
22249;DHT22;67538;52.180;5.646;2023-07-24T08:39:47;19.20;99.90
22249;DHT22;67538;52.180;5.646;2023-07-24T08:42:14;19.10;99.90
22249;DHT22;67538;52.180;5.646;2023-07-24T08:44:42;19.00;99.90
22249;DHT22;67538;52.180;5.646;2023-07-24T08:47:10;19.10;99.90
22249;DHT22;67538;52.180;5.646;2023-07-24T08:49:39;19.30;99.90
22249;DHT22;67538;52.180;5.646;2023-07-24T08:52:07;19.50;99.90
22249;DHT22;67538;52.180;5.646;2023-07-24T08:54:37;19.40;99.90
22249;DHT22;67538;52.180;5.646;2023-07-24T08:57:06;19.40;99.90
22249;DHT22;67538;52.180;5.646;2023-07-24T08:59:34;19.40;99.90
22249;DHT22;67538;52.180;5.646;2023-07-24T09:02:01;19.70;99.90
22249;DHT22;67538;52.180;5.646;2023-07-24T09:04:29;19.90;99.90
22249;DHT22;67538;52.180;5.646;2023-07-24T09:06:57;19.80;99.90
22249;DHT22;67538;52.180;5.646;2023-07-24T09:09:29;19.90;99.90
22249;DHT22;67538;52.180;5.646;2023-07-24T09:11:58;20.10;99.90
22249;DHT22;67538;52.180;5.646;2023-07-24T09:14:26;20.50;99.90
22249;DHT22;67538;52.180;5.646;2023-07-24T09:17:12;20.60;99.90
22249;DHT22;67538;52.180;5.646;2023-07-24T09:19:39;20.50;99.90
22249;DHT22;67538;52.180;5.646;2023-07-24T09:22:10;20.50;99.90
22249;DHT22;67538;52.180;5.646;2023-07-24T09:24:38;20.70;99.90
22249;DHT22;67538;52.180;5.646;2023-07-24T09:27:06;20.70;99.90
22249;DHT22;67538;52.180;5.646;2023-07-24T09:29:35;20.40;99.90
22249;DHT22;67538;52.180;5.646;2023-07-24T09:32:02;20.00;99.90
22249;DHT22;67538;52.180;5.646;2023-07-24T09:34:31;20.00;99.90
22249;DHT22;67538;52.180;5.646;2023-07-24T09:36:58;19.90;99.90
22249;DHT22;67538;52.180;5.646;2023-07-24T09:39:26;19.80;99.90
22249;DHT22;67538;52.180;5.646;2023-07-24T09:42:01;19.70;99.90
22249;DHT22;67538;52.180;5.646;2023-07-24T09:44:30;19.80;99.90
22249;DHT22;67538;52.180;5.646;2023-07-24T09:46:57;19.80;99.90
22249;DHT22;67538;52.180;5.646;2023-07-24T09:49:25;19.80;99.90
22249;DHT22;67538;52.180;5.646;2023-07-24T09:51:54;19.70;99.90
22249;DHT22;67538;52.180;5.646;2023-07-24T09:54:27;19.70;99.90
22249;DHT22;67538;52.180;5.646;2023-07-24T09:56:57;19.70;99.90
22249;DHT22;67538;52.180;5.646;2023-07-24T09:59:27;19.70;99.90
22249;DHT22;67538;52.180;5.646;2023-07-24T10:01:57;19.50;99.90
22249;DHT22;67538;52.180;5.646;2023-07-24T10:04:24;19.50;99.90
22249;DHT22;67538;52.180;5.646;2023-07-24T10:06:52;19.50;99.90
22249;DHT22;67538;52.180;5.646;2023-07-24T10:09:19;19.70;99.90
22249;DHT22;67538;52.180;5.646;2023-07-24T10:11:48;19.90;99.90
22249;DHT22;67538;52.180;5.646;2023-07-24T10:14:15;19.90;99.90
22249;DHT22;67538;52.180;5.646;2023-07-24T10:16:44;20.10;99.90
22249;DHT22;67538;52.180;5.646;2023-07-24T10:19:16;20.20;99.90
22249;DHT22;67538;52.180;5.646;2023-07-24T10:21:47;20.40;99.90
22249;DHT22;67538;52.180;5.646;2023-07-24T10:24:15;20.40;99.90
22249;DHT22;67538;52.180;5.646;2023-07-24T10:26:42;20.40;99.90
22249;DHT22;67538;52.180;5.646;2023-07-24T10:29:09;20.40;99.90
22249;DHT22;67538;52.180;5.646;2023-07-24T10:31:36;20.50;99.90
22249;DHT22;67538;52.180;5.646;2023-07-24T10:34:04;20.40;99.90
22249;DHT22;67538;52.180;5.646;2023-07-24T10:36:36;20.50;99.90
22249;DHT22;67538;52.180;5.646;2023-07-24T10:39:13;20.60;99.90
22249;DHT22;67538;52.180;5.646;2023-07-24T10:41:40;20.60;99.90
22249;DHT22;67538;52.180;5.646;2023-07-24T10:44:09;20.50;99.90
22249;DHT22;67538;52.180;5.646;2023-07-24T10:46:38;20.30;99.90
22249;DHT22;67538;52.180;5.646;2023-07-24T10:49:06;20.20;99.90
22249;DHT22;67538;52.180;5.646;2023-07-24T10:51:34;20.10;99.90
22249;DHT22;67538;52.180;5.646;2023-07-24T10:54:04;20.10;99.90
22249;DHT22;67538;52.180;5.646;2023-07-24T10:56:31;20.00;99.90
22249;DHT22;67538;52.180;5.646;2023-07-24T10:59:02;20.00;99.90
22249;DHT22;67538;52.180;5.646;2023-07-24T11:01:31;20.20;99.90
22249;DHT22;67538;52.180;5.646;2023-07-24T11:03:58;20.60;99.90
22249;DHT22;67538;52.180;5.646;2023-07-24T11:06:26;21.00;99.90
22249;DHT22;67538;52.180;5.646;2023-07-24T11:08:56;20.70;99.90
22249;DHT22;67538;52.180;5.646;2023-07-24T11:11:28;20.50;99.90
22249;DHT22;67538;52.180;5.646;2023-07-24T11:13:56;20.40;99.90
22249;DHT22;67538;52.180;5.646;2023-07-24T11:16:23;20.50;99.90
22249;DHT22;67538;52.180;5.646;2023-07-24T11:18:50;20.50;99.90
22249;DHT22;67538;52.180;5.646;2023-07-24T11:21:19;20.60;99.90
22249;DHT22;67538;52.180;5.646;2023-07-24T11:23:48;20.60;99.90
22249;DHT22;67538;52.180;5.646;2023-07-24T11:26:18;20.60;99.90
22249;DHT22;67538;52.180;5.646;2023-07-24T11:28:45;20.90;99.90
22249;DHT22;67538;52.180;5.646;2023-07-24T11:31:12;21.20;99.90
22249;DHT22;67538;52.180;5.646;2023-07-24T11:33:41;21.10;99.90
22249;DHT22;67538;52.180;5.646;2023-07-24T11:36:10;20.80;99.90
22249;DHT22;67538;52.180;5.646;2023-07-24T11:38:37;20.70;99.90
22249;DHT22;67538;52.180;5.646;2023-07-24T11:41:04;20.80;99.90
22249;DHT22;67538;52.180;5.646;2023-07-24T11:43:33;21.10;99.90
22249;DHT22;67538;52.180;5.646;2023-07-24T11:46:00;21.40;99.90
22249;DHT22;67538;52.180;5.646;2023-07-24T11:48:27;21.40;99.90
22249;DHT22;67538;52.180;5.646;2023-07-24T11:50:55;21.50;99.90
22249;DHT22;67538;52.180;5.646;2023-07-24T11:53:23;21.40;99.90
22249;DHT22;67538;52.180;5.646;2023-07-24T11:55:51;21.40;99.90
22249;DHT22;67538;52.180;5.646;2023-07-24T11:58:19;21.30;99.90
22249;DHT22;67538;52.180;5.646;2023-07-24T12:00:49;21.10;99.90
22249;DHT22;67538;52.180;5.646;2023-07-24T12:03:19;21.00;99.90
22249;DHT22;67538;52.180;5.646;2023-07-24T12:05:47;20.90;99.90
22249;DHT22;67538;52.180;5.646;2023-07-24T12:08:14;21.00;99.90
22249;DHT22;67538;52.180;5.646;2023-07-24T12:10:43;21.00;99.90
22249;DHT22;67538;52.180;5.646;2023-07-24T12:13:10;21.00;99.90
22249;DHT22;67538;52.180;5.646;2023-07-24T12:15:37;21.30;99.90
22249;DHT22;67538;52.180;5.646;2023-07-24T12:18:06;21.30;99.90
22249;DHT22;67538;52.180;5.646;2023-07-24T12:20:34;21.20;99.90
22249;DHT22;67538;52.180;5.646;2023-07-24T12:23:01;20.80;99.90
22249;DHT22;67538;52.180;5.646;2023-07-24T12:25:28;20.40;99.90
22249;DHT22;67538;52.180;5.646;2023-07-24T12:27:55;20.10;99.90
22249;DHT22;67538;52.180;5.646;2023-07-24T12:30:22;19.90;99.90
22249;DHT22;67538;52.180;5.646;2023-07-24T12:32:50;19.80;99.90
22249;DHT22;67538;52.180;5.646;2023-07-24T12:35:18;19.70;99.90
22249;DHT22;67538;52.180;5.646;2023-07-24T12:37:46;19.70;99.90
22249;DHT22;67538;52.180;5.646;2023-07-24T12:40:13;19.70;99.90
22249;DHT22;67538;52.180;5.646;2023-07-24T12:42:40;19.90;99.90
22249;DHT22;67538;52.180;5.646;2023-07-24T12:45:07;20.10;99.90
22249;DHT22;67538;52.180;5.646;2023-07-24T12:47:34;20.40;99.90
22249;DHT22;67538;52.180;5.646;2023-07-24T12:50:02;20.50;99.90
22249;DHT22;67538;52.180;5.646;2023-07-24T12:52:30;20.50;99.90
22249;DHT22;67538;52.180;5.646;2023-07-24T12:54:57;20.70;99.90
22249;DHT22;67538;52.180;5.646;2023-07-24T12:57:24;20.80;99.90
22249;DHT22;67538;52.180;5.646;2023-07-24T12:59:52;20.80;99.90
22249;DHT22;67538;52.180;5.646;2023-07-24T13:02:19;21.00;99.90
22249;DHT22;67538;52.180;5.646;2023-07-24T13:04:46;21.30;99.90
22249;DHT22;67538;52.180;5.646;2023-07-24T13:07:13;21.20;99.90
22249;DHT22;67538;52.180;5.646;2023-07-24T13:09:42;21.10;99.90
22249;DHT22;67538;52.180;5.646;2023-07-24T13:12:09;20.90;99.90
22249;DHT22;67538;52.180;5.646;2023-07-24T13:14:36;20.60;99.90
22249;DHT22;67538;52.180;5.646;2023-07-24T13:17:04;20.40;99.90
22249;DHT22;67538;52.180;5.646;2023-07-24T13:19:31;20.40;99.90
22249;DHT22;67538;52.180;5.646;2023-07-24T13:21:58;20.40;99.90
22249;DHT22;67538;52.180;5.646;2023-07-24T13:24:25;20.60;99.90
22249;DHT22;67538;52.180;5.646;2023-07-24T13:26:54;20.80;99.90
22249;DHT22;67538;52.180;5.646;2023-07-24T13:29:21;20.80;99.90
22249;DHT22;67538;52.180;5.646;2023-07-24T13:31:49;20.60;99.90
22249;DHT22;67538;52.180;5.646;2023-07-24T13:34:16;20.40;99.90
22249;DHT22;67538;52.180;5.646;2023-07-24T13:36:45;20.20;99.90
22249;DHT22;67538;52.180;5.646;2023-07-24T13:39:12;20.00;99.90
22249;DHT22;67538;52.180;5.646;2023-07-24T13:41:39;19.70;99.90
22249;DHT22;67538;52.180;5.646;2023-07-24T13:44:08;19.60;99.90
22249;DHT22;67538;52.180;5.646;2023-07-24T13:46:35;19.40;99.90
22249;DHT22;67538;52.180;5.646;2023-07-24T13:49:02;19.30;99.90
22249;DHT22;67538;52.180;5.646;2023-07-24T13:51:29;19.10;99.90
22249;DHT22;67538;52.180;5.646;2023-07-24T13:53:57;19.00;99.90
22249;DHT22;67538;52.180;5.646;2023-07-24T13:56:25;18.90;99.90
22249;DHT22;67538;52.180;5.646;2023-07-24T13:58:53;18.80;99.90
22249;DHT22;67538;52.180;5.646;2023-07-24T14:01:22;18.80;99.90
22249;DHT22;67538;52.180;5.646;2023-07-24T14:03:49;18.70;99.90
22249;DHT22;67538;52.180;5.646;2023-07-24T14:06:16;18.60;99.90
22249;DHT22;67538;52.180;5.646;2023-07-24T14:08:43;18.60;99.90
22249;DHT22;67538;52.180;5.646;2023-07-24T14:11:10;18.60;99.90
22249;DHT22;67538;52.180;5.646;2023-07-24T14:13:37;18.60;99.90
22249;DHT22;67538;52.180;5.646;2023-07-24T14:16:05;18.50;99.90
22249;DHT22;67538;52.180;5.646;2023-07-24T14:18:33;18.60;99.90
22249;DHT22;67538;52.180;5.646;2023-07-24T14:21:00;18.80;99.90
22249;DHT22;67538;52.180;5.646;2023-07-24T14:23:27;19.00;99.90
22249;DHT22;67538;52.180;5.646;2023-07-24T14:25:54;19.20;99.90
22249;DHT22;67538;52.180;5.646;2023-07-24T14:28:21;19.20;99.90
22249;DHT22;67538;52.180;5.646;2023-07-24T14:30:48;19.20;99.90
22249;DHT22;67538;52.180;5.646;2023-07-24T14:33:15;19.10;99.90
22249;DHT22;67538;52.180;5.646;2023-07-24T14:35:44;19.20;99.90
22249;DHT22;67538;52.180;5.646;2023-07-24T14:38:11;19.10;99.90
22249;DHT22;67538;52.180;5.646;2023-07-24T14:40:38;19.10;99.90
22249;DHT22;67538;52.180;5.646;2023-07-24T14:43:05;19.00;99.90
22249;DHT22;67538;52.180;5.646;2023-07-24T14:45:32;19.00;99.90
22249;DHT22;67538;52.180;5.646;2023-07-24T14:47:59;18.90;99.90
22249;DHT22;67538;52.180;5.646;2023-07-24T14:50:26;18.80;99.90
22249;DHT22;67538;52.180;5.646;2023-07-24T14:52:55;18.70;99.90
22249;DHT22;67538;52.180;5.646;2023-07-24T14:55:22;18.70;99.90
22249;DHT22;67538;52.180;5.646;2023-07-24T14:57:49;18.70;99.90
22249;DHT22;67538;52.180;5.646;2023-07-24T15:00:16;18.80;99.90
22249;DHT22;67538;52.180;5.646;2023-07-24T15:02:43;18.80;99.90
22249;DHT22;67538;52.180;5.646;2023-07-24T15:05:10;18.90;99.90
22249;DHT22;67538;52.180;5.646;2023-07-24T15:07:38;19.00;99.90
22249;DHT22;67538;52.180;5.646;2023-07-24T15:10:07;19.00;99.90
22249;DHT22;67538;52.180;5.646;2023-07-24T15:12:34;19.00;99.90
22249;DHT22;67538;52.180;5.646;2023-07-24T15:15:01;19.00;99.90
22249;DHT22;67538;52.180;5.646;2023-07-24T15:17:29;18.90;99.90
22249;DHT22;67538;52.180;5.646;2023-07-24T15:19:56;18.90;99.90
22249;DHT22;67538;52.180;5.646;2023-07-24T15:22:23;18.90;99.90
22249;DHT22;67538;52.180;5.646;2023-07-24T15:24:50;19.00;99.90
22249;DHT22;67538;52.180;5.646;2023-07-24T15:27:18;19.00;99.90
22249;DHT22;67538;52.180;5.646;2023-07-24T15:29:46;19.00;99.90
22249;DHT22;67538;52.180;5.646;2023-07-24T15:32:13;19.20;99.90